createdAt,value
2022-08-20T00:01:01.673Z,10.27
2022-08-20T00:02:47.767Z,10.00
2022-08-20T00:04:20.046Z,10.15
2022-08-20T00:05:57.802Z,9.52
2022-08-20T00:07:30.330Z,11.13
2022-08-20T00:09:02.507Z,8.85
2022-08-20T00:10:37.443Z,11.48
2022-08-20T00:12:11.364Z,9.80
2022-08-20T00:13:50.609Z,9.52
2022-08-20T00:15:28.497Z,10.23
2022-08-20T00:17:01.311Z,11.43
2022-08-20T00:20:10.219Z,10.77
2022-08-20T00:21:42.434Z,10.15
2022-08-20T00:23:15.212Z,10.82
2022-08-20T00:26:20.914Z,10.65
2022-08-20T00:27:53.165Z,11.57
2022-08-20T00:29:25.453Z,11.77
2022-08-20T00:30:57.673Z,11.32
2022-08-20T00:32:30.292Z,10.13
2022-08-20T00:34:02.441Z,11.98
2022-08-20T00:35:37.579Z,11.85
2022-08-20T00:37:09.964Z,12.48
2022-08-20T00:40:22.718Z,12.23
2022-08-20T00:41:55.499Z,13.35
2022-08-20T00:43:45.467Z,12.23
2022-08-20T00:45:19.849Z,12.27
2022-08-20T00:46:53.884Z,10.40
2022-08-20T00:48:29.068Z,10.82
2022-08-20T00:50:01.397Z,10.85
2022-08-20T00:51:43.917Z,12.40
2022-08-20T00:53:17.530Z,12.00
2022-08-20T00:54:53.378Z,10.77
2022-08-20T00:56:26.211Z,11.13
2022-08-20T00:58:03.342Z,9.32
2022-08-20T00:59:38.297Z,10.68
2022-08-20T01:01:11.094Z,12.57
2022-08-20T01:04:15.792Z,10.75
2022-08-20T01:05:51.000Z,11.82
2022-08-20T01:07:32.625Z,10.65
2022-08-20T01:09:06.318Z,10.68
2022-08-20T01:10:41.773Z,10.45
2022-08-20T01:12:16.212Z,11.68
2022-08-20T01:13:48.869Z,11.23
2022-08-20T01:15:26.900Z,10.55
2022-08-20T01:17:07.731Z,10.40
2022-08-20T01:18:40.513Z,10.65
2022-08-20T01:20:17.654Z,11.65
2022-08-20T01:21:51.946Z,8.88
2022-08-20T01:23:34.778Z,10.25
2022-08-20T01:25:25.443Z,10.40
2022-08-20T01:27:01.504Z,7.78
2022-08-20T01:28:43.665Z,9.45
2022-08-20T01:30:16.035Z,7.28
2022-08-20T01:31:48.810Z,6.43
2022-08-20T01:33:22.591Z,8.13
2022-08-20T01:34:55.265Z,6.45
2022-08-20T01:36:38.868Z,6.22
2022-08-20T01:38:13.589Z,6.10
2022-08-20T01:39:46.026Z,6.10
2022-08-20T01:41:51.443Z,6.50
2022-08-20T01:43:24.279Z,6.43
2022-08-20T01:46:43.939Z,7.20
2022-08-20T01:48:17.532Z,6.60
2022-08-20T01:49:54.612Z,6.70
2022-08-20T01:51:29.779Z,8.38
2022-08-20T01:53:20.496Z,7.10
2022-08-20T01:54:53.072Z,7.88
2022-08-20T01:56:28.610Z,7.22
2022-08-20T01:58:01.527Z,6.05
2022-08-20T01:59:34.064Z,5.63
2022-08-20T02:01:06.638Z,7.57
2022-08-20T02:04:15.122Z,5.90
2022-08-20T02:05:48.151Z,6.00
2022-08-20T02:07:22.702Z,5.63
2022-08-20T02:08:59.193Z,7.13
2022-08-20T02:10:32.227Z,5.70
2022-08-20T02:12:07.334Z,5.38
2022-08-20T02:13:40.913Z,4.65
2022-08-20T02:15:13.464Z,4.63
2022-08-20T02:16:55.073Z,5.68
2022-08-20T02:18:27.913Z,5.75
2022-08-20T02:20:10.534Z,5.95
2022-08-20T02:21:52.348Z,4.90
2022-08-20T02:23:24.708Z,5.13
2022-08-20T02:24:57.210Z,5.43
2022-08-20T02:26:30.027Z,6.18
2022-08-20T02:29:35.963Z,5.50
2022-08-20T02:31:08.726Z,5.10
2022-08-20T02:32:41.562Z,6.18
2022-08-20T02:35:55.638Z,5.65
2022-08-20T02:37:28.275Z,5.97
2022-08-20T02:39:00.499Z,6.35
2022-08-20T02:40:33.179Z,6.07
2022-08-20T02:42:06.089Z,5.78
2022-08-20T02:43:39.074Z,5.18
2022-08-20T02:46:51.328Z,6.60
2022-08-20T02:48:23.597Z,7.72
2022-08-20T02:49:56.446Z,6.07
2022-08-20T02:51:28.754Z,5.38
2022-08-20T02:53:03.677Z,6.05
2022-08-20T02:54:36.083Z,5.80
2022-08-20T02:57:41.880Z,5.75
2022-08-20T02:59:19.511Z,6.07
2022-08-20T03:00:53.163Z,5.70
2022-08-20T03:02:25.682Z,6.93
2022-08-20T03:04:00.159Z,5.45
2022-08-20T03:05:32.325Z,4.85
2022-08-20T03:07:05.716Z,6.22
2022-08-20T03:08:38.432Z,5.70
2022-08-20T03:10:10.852Z,5.35
2022-08-20T03:11:43.379Z,5.50
2022-08-20T03:13:16.588Z,5.53
2022-08-20T03:14:49.135Z,6.07
2022-08-20T03:16:21.355Z,6.32
2022-08-20T03:17:53.776Z,5.43
2022-08-20T03:19:26.575Z,5.88
2022-08-20T03:20:59.311Z,5.80
2022-08-20T03:22:31.523Z,5.55
2022-08-20T03:24:03.991Z,4.57
2022-08-20T03:25:36.366Z,5.85
2022-08-20T03:27:09.241Z,5.35
2022-08-20T03:28:42.435Z,6.50
2022-08-20T03:30:16.795Z,6.25
2022-08-20T03:31:49.035Z,5.25
2022-08-20T03:33:21.741Z,5.20
2022-08-20T03:34:53.971Z,5.43
2022-08-20T03:36:29.026Z,6.30
2022-08-20T03:38:01.520Z,5.82
2022-08-20T03:39:34.446Z,6.00
2022-08-20T03:41:06.808Z,5.65
2022-08-20T03:42:39.998Z,6.43
2022-08-20T03:44:12.282Z,5.45
2022-08-20T03:45:46.111Z,6.03
2022-08-20T03:47:18.365Z,5.95
2022-08-20T03:48:56.633Z,5.95
2022-08-20T03:50:34.409Z,5.38
2022-08-20T03:52:07.005Z,6.10
2022-08-20T03:53:39.358Z,4.93
2022-08-20T03:55:11.970Z,4.65
2022-08-20T03:58:17.448Z,5.65
2022-08-20T03:59:54.836Z,6.10
2022-08-20T04:01:45.080Z,5.57
2022-08-20T04:03:19.887Z,7.95
2022-08-20T04:04:52.057Z,6.25
2022-08-20T04:06:24.958Z,6.07
2022-08-20T04:08:00.080Z,6.63
2022-08-20T04:09:38.760Z,6.55
2022-08-20T04:11:10.894Z,5.60
2022-08-20T04:12:48.624Z,5.43
2022-08-20T04:14:23.549Z,5.57
2022-08-20T04:17:29.106Z,6.85
2022-08-20T04:20:37.874Z,6.00
2022-08-20T04:22:13.787Z,7.22
2022-08-20T04:23:46.003Z,5.53
2022-08-20T04:25:19.187Z,5.70
2022-08-20T04:26:58.852Z,6.05
2022-08-20T04:28:31.344Z,5.88
2022-08-20T04:30:08.683Z,6.32
2022-08-20T04:31:41.037Z,6.97
2022-08-20T04:33:13.989Z,6.78
2022-08-20T04:34:52.285Z,6.13
2022-08-20T04:36:24.674Z,5.90
2022-08-20T04:38:06.883Z,7.22
2022-08-20T04:39:39.543Z,6.85
2022-08-20T04:41:22.424Z,5.93
2022-08-20T04:42:56.069Z,5.20
2022-08-20T04:44:28.887Z,6.00
2022-08-20T04:46:05.898Z,7.00
2022-08-20T04:47:38.540Z,5.78
2022-08-20T04:49:10.796Z,5.50
2022-08-20T04:50:45.787Z,6.00
2022-08-20T04:52:18.352Z,6.18
2022-08-20T04:53:53.644Z,6.55
2022-08-20T04:55:26.040Z,6.43
2022-08-20T04:57:01.053Z,6.20
2022-08-20T04:58:36.299Z,6.10
2022-08-20T05:00:12.852Z,6.75
2022-08-20T05:01:45.648Z,6.97
2022-08-20T05:03:19.198Z,7.32
2022-08-20T05:04:51.730Z,6.40
2022-08-20T05:06:28.622Z,6.90
2022-08-20T05:08:01.812Z,7.90
2022-08-20T05:09:35.105Z,7.80
2022-08-20T05:11:33.886Z,6.75
2022-08-20T05:13:08.866Z,8.38
2022-08-20T05:14:42.468Z,7.70
2022-08-20T05:16:17.662Z,7.63
2022-08-20T05:18:00.529Z,7.18
2022-08-20T05:19:38.881Z,7.07
2022-08-20T05:21:11.284Z,6.95
2022-08-20T05:22:47.924Z,6.13
2022-08-20T05:24:21.482Z,8.65
2022-08-20T05:25:53.712Z,6.43
2022-08-20T05:27:27.159Z,7.18
2022-08-20T05:28:59.651Z,7.85
2022-08-20T05:32:06.723Z,8.45
2022-08-20T05:33:39.258Z,7.85
2022-08-20T05:36:49.718Z,6.85
2022-08-20T05:38:24.979Z,8.23
2022-08-20T05:39:57.879Z,6.80
2022-08-20T05:41:30.686Z,7.15
2022-08-20T05:43:04.835Z,7.72
2022-08-20T05:44:37.936Z,6.70
2022-08-20T05:46:10.153Z,6.55
2022-08-20T05:47:43.104Z,5.95
2022-08-20T05:49:22.271Z,6.45
2022-08-20T05:50:54.925Z,5.15
2022-08-20T05:52:27.265Z,5.25
2022-08-20T05:53:59.962Z,6.13
2022-08-20T05:55:32.736Z,6.05
2022-08-20T05:58:37.734Z,4.85
2022-08-20T06:00:12.886Z,4.88
2022-08-20T06:01:46.061Z,6.60
2022-08-20T06:05:09.491Z,4.93
2022-08-20T06:06:44.967Z,4.90
2022-08-20T06:08:19.407Z,5.50
2022-08-20T06:11:23.847Z,4.97
2022-08-20T06:12:56.104Z,5.25
2022-08-20T06:14:29.204Z,6.22
2022-08-20T06:16:01.937Z,4.78
2022-08-20T06:17:39.860Z,6.05
2022-08-20T06:19:12.443Z,5.32
2022-08-20T06:20:46.109Z,5.88
2022-08-20T06:22:25.784Z,5.35
2022-08-20T06:24:00.957Z,5.35
2022-08-20T06:25:37.996Z,4.90
2022-08-20T06:27:14.841Z,4.68
2022-08-20T06:28:47.162Z,4.55
2022-08-20T06:31:51.844Z,4.87
2022-08-20T06:33:24.354Z,4.50
2022-08-20T06:36:28.942Z,4.38
2022-08-20T06:38:01.146Z,4.03
2022-08-20T06:39:33.722Z,4.53
2022-08-20T06:41:09.250Z,4.97
2022-08-20T06:42:47.824Z,3.50
2022-08-20T06:44:21.008Z,5.00
2022-08-20T06:45:57.823Z,4.25
2022-08-20T06:47:31.373Z,4.40
2022-08-20T06:49:05.577Z,4.82
2022-08-20T06:50:47.508Z,4.05
2022-08-20T06:52:20.488Z,4.25
2022-08-20T06:54:07.425Z,4.35
2022-08-20T06:55:42.399Z,4.63
2022-08-20T06:57:21.154Z,4.35
2022-08-20T06:58:53.386Z,5.60
2022-08-20T07:03:31.344Z,4.63
2022-08-20T07:05:05.350Z,4.22
2022-08-20T07:06:37.655Z,5.05
2022-08-20T07:08:12.067Z,3.67
2022-08-20T07:09:44.714Z,4.70
2022-08-20T07:12:51.061Z,5.07
2022-08-20T07:14:23.270Z,3.85
2022-08-20T07:15:56.218Z,4.40
2022-08-20T07:17:28.475Z,3.40
2022-08-20T07:19:00.681Z,3.47
2022-08-20T07:20:35.748Z,3.60
2022-08-20T07:22:08.432Z,3.80
2022-08-20T07:25:18.474Z,3.58
2022-08-20T07:26:52.163Z,4.18
2022-08-20T07:28:30.933Z,3.17
2022-08-20T07:30:23.664Z,4.28
2022-08-20T07:32:14.491Z,3.60
2022-08-20T07:33:50.265Z,3.53
2022-08-20T07:35:23.926Z,2.88
2022-08-20T07:36:59.951Z,3.58
2022-08-20T07:38:33.919Z,2.88
2022-08-20T07:40:07.522Z,3.85
2022-08-20T07:41:39.783Z,2.88
2022-08-20T07:43:12.093Z,3.10
2022-08-20T07:46:20.549Z,3.00
2022-08-20T07:47:56.582Z,2.72
2022-08-20T07:49:28.816Z,2.95
2022-08-20T07:51:06.146Z,2.88
2022-08-20T07:52:38.694Z,4.57
2022-08-20T07:54:10.964Z,3.25
2022-08-20T07:57:32.059Z,3.38
2022-08-20T07:59:04.522Z,3.25
2022-08-20T08:00:36.958Z,3.20
2022-08-20T08:02:09.380Z,3.10
2022-08-20T08:03:50.328Z,3.20
2022-08-20T08:05:23.368Z,2.50
2022-08-20T08:08:32.679Z,3.03
2022-08-20T08:10:08.975Z,2.33
2022-08-20T08:11:47.548Z,2.28
2022-08-20T08:13:20.171Z,1.88
2022-08-20T08:14:52.403Z,1.98
2022-08-20T08:18:01.841Z,2.45
2022-08-20T08:19:38.903Z,2.30
2022-08-20T08:21:14.738Z,2.03
2022-08-20T08:22:47.302Z,1.90
2022-08-20T08:24:22.505Z,1.83
2022-08-20T08:25:56.618Z,2.30
2022-08-20T08:27:33.356Z,2.17
2022-08-20T08:29:07.685Z,1.80
2022-08-20T08:30:42.191Z,1.52
2022-08-20T08:32:14.389Z,2.60
2022-08-20T08:33:46.613Z,2.05
2022-08-20T08:35:19.105Z,2.05
2022-08-20T08:38:25.199Z,1.88
2022-08-20T08:39:57.432Z,1.80
2022-08-20T08:41:36.339Z,1.38
2022-08-20T08:43:12.247Z,1.67
2022-08-20T08:44:44.595Z,1.63
2022-08-20T08:46:22.588Z,1.52
2022-08-20T08:47:56.164Z,1.92
2022-08-20T08:49:37.998Z,1.55
2022-08-20T08:51:12.713Z,1.53
2022-08-20T08:52:46.365Z,1.63
2022-08-20T08:54:22.175Z,1.20
2022-08-20T08:55:55.161Z,1.77
2022-08-20T08:59:06.138Z,1.48
2022-08-20T09:00:38.416Z,1.85
2022-08-20T09:02:30.609Z,1.67
2022-08-20T09:04:05.531Z,1.58
2022-08-20T09:05:48.523Z,1.90
2022-08-20T09:07:21.000Z,1.80
2022-08-20T09:10:30.510Z,1.38
2022-08-20T09:12:07.110Z,1.30
2022-08-20T09:13:39.358Z,1.70
2022-08-20T09:16:52.275Z,1.58
2022-08-20T09:18:25.366Z,0.60
2022-08-20T09:19:57.603Z,1.50
2022-08-20T09:21:30.234Z,1.48
2022-08-20T09:23:05.716Z,0.90
2022-08-20T09:24:39.021Z,1.10
2022-08-20T09:26:11.916Z,1.42
2022-08-20T09:27:44.475Z,0.98
2022-08-20T09:29:19.655Z,1.45
2022-08-20T09:30:52.573Z,1.17
2022-08-20T09:32:26.089Z,1.13
2022-08-20T09:34:01.898Z,1.17
2022-08-20T09:35:34.577Z,1.08
2022-08-20T09:37:07.668Z,0.82
2022-08-20T09:38:39.876Z,1.30
2022-08-20T09:41:44.905Z,1.48
2022-08-20T09:43:17.099Z,1.48
2022-08-20T09:44:49.661Z,1.17
2022-08-20T09:46:27.062Z,1.23
2022-08-20T09:48:00.007Z,1.08
2022-08-20T09:49:32.518Z,1.38
2022-08-20T09:52:50.189Z,1.10
2022-08-20T09:54:30.036Z,1.15
2022-08-20T09:56:02.354Z,1.27
2022-08-20T09:57:35.036Z,1.42
2022-08-20T09:59:09.266Z,1.17
2022-08-20T10:00:41.575Z,1.25
2022-08-20T10:02:13.871Z,1.55
2022-08-20T10:03:49.946Z,1.42
2022-08-20T10:05:22.830Z,1.27
2022-08-20T10:06:55.064Z,1.27
2022-08-20T10:08:27.433Z,1.38
2022-08-20T10:10:02.557Z,1.52
2022-08-20T10:11:35.063Z,1.42
2022-08-20T10:14:40.611Z,1.50
2022-08-20T10:16:13.248Z,1.92
2022-08-20T10:17:45.803Z,2.13
2022-08-20T10:19:18.010Z,1.88
2022-08-20T10:20:50.321Z,1.42
2022-08-20T10:23:55.010Z,1.60
2022-08-20T10:25:28.855Z,1.27
2022-08-20T10:27:02.298Z,1.70
2022-08-20T10:28:35.435Z,1.52
2022-08-20T10:30:09.085Z,1.27
2022-08-20T10:31:41.706Z,1.33
2022-08-20T10:33:13.999Z,2.00
2022-08-20T10:34:46.706Z,1.85
2022-08-20T10:36:19.215Z,1.42
2022-08-20T10:37:51.828Z,1.50
2022-08-20T10:39:24.129Z,1.42
2022-08-20T10:40:56.431Z,1.35
2022-08-20T10:42:29.018Z,1.90
2022-08-20T10:44:01.250Z,1.45
2022-08-20T10:45:33.448Z,1.50
2022-08-20T10:47:27.681Z,1.33
2022-08-20T10:49:00.187Z,1.20
2022-08-20T10:50:32.382Z,1.85
2022-08-20T10:52:05.931Z,2.05
2022-08-20T10:53:39.041Z,1.98
2022-08-20T10:55:12.096Z,1.90
2022-08-20T10:56:44.332Z,2.03
2022-08-20T10:58:16.664Z,1.77
2022-08-20T11:01:32.679Z,2.33
2022-08-20T11:03:06.398Z,2.08
2022-08-20T11:04:40.850Z,1.70
2022-08-20T11:06:13.250Z,1.80
2022-08-20T11:07:55.070Z,2.38
2022-08-20T11:09:30.785Z,1.90
2022-08-20T11:11:04.040Z,2.05
2022-08-20T11:12:36.627Z,2.17
2022-08-20T11:14:09.238Z,1.90
2022-08-20T11:17:23.670Z,2.58
2022-08-20T11:18:55.889Z,2.33
2022-08-20T11:22:00.855Z,2.80
2022-08-20T11:23:33.604Z,2.03
2022-08-20T11:25:07.276Z,2.10
2022-08-20T11:26:40.684Z,2.58
2022-08-20T11:28:13.216Z,2.22
2022-08-20T11:31:17.693Z,2.38
2022-08-20T11:32:50.464Z,2.15
2022-08-20T11:35:54.876Z,2.28
2022-08-20T11:37:27.231Z,1.52
2022-08-20T11:38:59.718Z,1.92
2022-08-20T11:40:32.106Z,2.28
2022-08-20T11:42:04.549Z,2.10
2022-08-20T11:45:10.035Z,2.25
2022-08-20T11:46:42.340Z,2.08
2022-08-20T11:48:14.876Z,1.90
2022-08-20T11:49:47.147Z,2.25
2022-08-20T11:51:19.676Z,1.95
2022-08-20T11:52:51.926Z,1.92
2022-08-20T11:54:24.484Z,2.47
2022-08-20T11:55:56.853Z,2.25
2022-08-20T11:57:32.547Z,1.90
2022-08-20T11:59:04.804Z,2.35
2022-08-20T12:00:37.195Z,2.42
2022-08-20T12:02:12.457Z,2.13
2022-08-20T12:03:45.232Z,2.55
2022-08-20T12:05:18.366Z,2.28
2022-08-20T12:06:50.621Z,1.92
2022-08-20T12:08:26.704Z,2.38
2022-08-20T12:10:00.400Z,1.88
2022-08-20T12:11:32.722Z,2.50
2022-08-20T12:13:06.864Z,2.05
2022-08-20T12:14:39.330Z,1.95
2022-08-20T12:16:11.896Z,1.73
2022-08-20T12:17:44.643Z,1.80
2022-08-20T12:19:17.418Z,2.25
2022-08-20T12:20:50.749Z,2.55
2022-08-20T12:22:24.651Z,2.50
2022-08-20T12:23:57.745Z,2.25
2022-08-20T12:25:30.133Z,2.70
2022-08-20T12:28:45.226Z,2.07
2022-08-20T12:30:20.716Z,2.17
2022-08-20T12:31:52.910Z,2.08
2022-08-20T12:33:25.694Z,2.33
2022-08-20T12:34:58.694Z,1.98
2022-08-20T12:36:30.889Z,2.17
2022-08-20T12:38:05.516Z,1.95
2022-08-20T12:39:43.705Z,1.88
2022-08-20T12:41:16.220Z,2.08
2022-08-20T12:42:49.000Z,1.67
2022-08-20T12:44:21.173Z,1.98
2022-08-20T12:45:53.471Z,1.65
2022-08-20T12:47:31.999Z,2.25
2022-08-20T12:49:04.248Z,2.03
2022-08-20T12:50:38.867Z,1.80
2022-08-20T12:52:12.386Z,1.60
2022-08-20T12:53:44.872Z,1.90
2022-08-20T12:55:19.226Z,2.28
2022-08-20T12:56:52.112Z,1.30
2022-08-20T12:58:24.774Z,1.85
2022-08-20T13:00:01.676Z,1.98
2022-08-20T13:01:36.244Z,1.75
2022-08-20T13:03:09.733Z,1.92
2022-08-20T13:04:41.932Z,2.00
2022-08-20T13:06:14.490Z,2.42
2022-08-20T13:07:47.962Z,1.67
2022-08-20T13:09:20.150Z,1.63
2022-08-20T13:10:52.374Z,1.85
2022-08-20T13:12:24.915Z,1.45
2022-08-20T13:13:57.119Z,1.90
2022-08-20T13:15:31.540Z,2.22
2022-08-20T13:17:05.025Z,1.40
2022-08-20T13:18:39.017Z,1.75
2022-08-20T13:20:15.745Z,1.77
2022-08-20T13:21:54.821Z,1.63
2022-08-20T13:23:27.571Z,1.55
2022-08-20T13:26:32.241Z,1.70
2022-08-20T13:28:04.925Z,1.63
2022-08-20T13:29:37.997Z,1.98
2022-08-20T13:31:10.504Z,1.80
2022-08-20T13:32:42.958Z,1.50
2022-08-20T13:35:47.356Z,1.60
2022-08-20T13:37:25.490Z,2.22
2022-08-20T13:38:58.102Z,2.38
2022-08-20T13:40:30.477Z,2.10
2022-08-20T13:43:35.218Z,1.42
2022-08-20T13:46:40.105Z,2.00
2022-08-20T13:49:54.092Z,1.90
2022-08-20T13:51:27.688Z,1.77
2022-08-20T13:53:02.969Z,2.00
2022-08-20T13:54:35.269Z,2.00
2022-08-20T13:56:08.160Z,1.80
2022-08-20T13:57:41.247Z,1.92
2022-08-20T13:59:13.440Z,1.98
2022-08-20T14:00:46.590Z,2.42
2022-08-20T14:02:19.980Z,2.25
2022-08-20T14:03:52.802Z,2.00
2022-08-20T14:05:25.083Z,2.17
2022-08-20T14:08:29.901Z,2.13
2022-08-20T14:10:08.525Z,2.10
2022-08-20T14:11:40.743Z,2.28
2022-08-20T14:13:15.646Z,1.95
2022-08-20T14:14:49.299Z,1.83
2022-08-20T14:17:39.591Z,2.45
2022-08-20T14:18:15.036Z,2.35
2022-08-20T14:19:48.857Z,2.08
2022-08-20T14:21:21.352Z,1.92
2022-08-20T14:22:53.700Z,1.90
2022-08-20T14:24:25.880Z,3.22
2022-08-20T14:25:58.113Z,2.92
2022-08-20T14:29:03.752Z,2.47
2022-08-20T14:30:36.364Z,2.70
2022-08-20T14:32:09.344Z,2.70
2022-08-20T14:33:44.657Z,2.55
2022-08-20T14:35:17.319Z,2.28
2022-08-20T14:36:49.576Z,2.00
2022-08-20T14:38:23.008Z,1.70
2022-08-20T14:41:31.789Z,2.08
2022-08-20T14:43:04.468Z,2.25
2022-08-20T14:44:37.162Z,1.90
2022-08-20T14:46:09.655Z,2.05
2022-08-20T14:47:45.515Z,3.00
2022-08-20T14:49:17.723Z,2.20
2022-08-20T14:50:50.078Z,2.67
2022-08-20T14:54:00.463Z,2.42
2022-08-20T14:55:37.551Z,2.45
2022-08-20T14:57:13.144Z,2.17
2022-08-20T14:58:45.983Z,2.40
2022-08-20T15:00:23.072Z,2.95
2022-08-20T15:01:55.225Z,2.22
2022-08-20T15:03:30.637Z,2.55
2022-08-20T15:05:05.021Z,2.17
2022-08-20T15:06:39.409Z,2.30
2022-08-20T15:09:44.123Z,2.20
2022-08-20T15:11:16.612Z,2.95
2022-08-20T15:12:49.041Z,3.03
2022-08-20T15:14:21.220Z,2.70
2022-08-20T15:15:53.891Z,2.10
2022-08-20T15:17:28.767Z,2.42
2022-08-20T15:19:01.444Z,2.53
2022-08-20T15:20:35.747Z,2.80
2022-08-20T15:22:08.958Z,2.92
2022-08-20T15:23:41.809Z,3.47
2022-08-20T15:25:16.659Z,3.15
2022-08-20T15:26:49.027Z,2.70
2022-08-20T15:28:21.266Z,3.15
2022-08-20T15:29:54.491Z,2.90
2022-08-20T15:31:26.755Z,3.45
2022-08-20T15:32:59.228Z,2.90
2022-08-20T15:34:31.723Z,3.55
2022-08-20T15:37:44.259Z,2.42
2022-08-20T15:39:19.442Z,3.55
2022-08-20T15:40:52.452Z,3.22
2022-08-20T15:43:58.242Z,3.80
2022-08-20T15:45:31.767Z,2.80
2022-08-20T15:47:24.563Z,3.08
2022-08-20T15:48:57.178Z,3.03
2022-08-20T15:50:42.100Z,3.03
2022-08-20T15:52:15.658Z,2.67
2022-08-20T15:54:00.549Z,2.63
2022-08-20T15:55:35.998Z,2.92
2022-08-20T15:57:53.113Z,2.38
2022-08-20T15:59:44.036Z,3.08
2022-08-20T16:01:26.056Z,3.13
2022-08-20T16:03:20.381Z,3.05
2022-08-20T16:05:14.000Z,3.03
2022-08-20T16:06:50.279Z,3.40
2022-08-20T16:08:44.295Z,3.70
2022-08-20T16:10:23.203Z,4.07
2022-08-20T16:12:16.591Z,3.60
2022-08-20T16:13:57.779Z,3.35
2022-08-20T16:15:35.755Z,4.05
2022-08-20T16:17:26.040Z,4.28
2022-08-20T16:18:59.379Z,4.15
2022-08-20T16:20:42.434Z,3.42
2022-08-20T16:22:18.347Z,3.70
2022-08-20T16:23:50.760Z,3.17
2022-08-20T16:25:24.608Z,2.78
2022-08-20T16:27:14.631Z,3.88
2022-08-20T16:29:11.389Z,3.65
2022-08-20T16:30:47.892Z,3.85
2022-08-20T16:32:46.383Z,4.38
2022-08-20T16:34:34.735Z,3.60
2022-08-20T16:36:11.721Z,4.25
2022-08-20T16:38:07.041Z,3.85
2022-08-20T16:40:08.749Z,3.75
2022-08-20T16:41:46.070Z,4.55
2022-08-20T16:43:56.089Z,3.40
2022-08-20T16:45:35.411Z,4.10
2022-08-20T16:47:22.159Z,3.70
2022-08-20T16:48:58.309Z,4.53
2022-08-20T16:50:36.084Z,4.38
2022-08-20T16:52:08.693Z,4.50
2022-08-20T16:53:40.878Z,4.68
2022-08-20T16:55:14.309Z,5.30
2022-08-20T16:56:50.329Z,5.10
2022-08-20T16:58:26.020Z,4.25
2022-08-20T17:00:05.989Z,3.80
2022-08-20T17:01:38.760Z,4.85
2022-08-20T17:03:31.728Z,3.92
2022-08-20T17:05:12.240Z,4.38
2022-08-20T17:06:48.209Z,5.07
2022-08-20T17:08:28.731Z,4.15
2022-08-20T17:10:26.786Z,3.97
2022-08-20T17:12:18.550Z,4.20
2022-08-20T17:14:13.883Z,3.78
2022-08-20T17:16:04.595Z,4.05
2022-08-20T17:17:37.299Z,4.32
2022-08-20T17:19:33.893Z,4.18
2022-08-20T17:21:15.834Z,4.10
2022-08-20T17:23:04.636Z,5.05
2022-08-20T17:24:38.629Z,4.88
2022-08-20T17:26:23.647Z,4.15
2022-08-20T17:27:55.897Z,4.50
2022-08-20T17:29:33.561Z,4.60
2022-08-20T17:31:06.193Z,4.72
2022-08-20T17:32:57.554Z,5.43
2022-08-20T17:34:42.313Z,4.35
2022-08-20T17:36:22.251Z,4.28
2022-08-20T17:37:54.609Z,4.72
2022-08-20T17:39:31.637Z,4.70
2022-08-20T17:41:13.880Z,4.07
2022-08-20T17:43:08.427Z,5.00
2022-08-20T17:44:45.584Z,5.13
2022-08-20T17:46:17.849Z,4.20
2022-08-20T17:47:51.793Z,4.20
2022-08-20T17:49:34.756Z,4.95
2022-08-20T17:51:16.308Z,4.30
2022-08-20T17:52:57.512Z,4.88
2022-08-20T17:54:34.368Z,4.40
2022-08-20T17:56:34.690Z,5.00
2022-08-20T17:58:12.663Z,4.25
2022-08-20T18:00:02.370Z,5.00
2022-08-20T18:01:38.030Z,4.82
2022-08-20T18:03:21.626Z,5.32
2022-08-20T18:04:55.011Z,5.05
2022-08-20T18:06:34.401Z,4.25
2022-08-20T18:08:34.735Z,4.45
2022-08-20T18:10:16.436Z,4.82
2022-08-20T18:11:54.799Z,3.88
2022-08-20T18:13:52.055Z,4.85
2022-08-20T18:15:53.985Z,3.80
2022-08-20T18:17:56.522Z,3.85
2022-08-20T18:19:38.982Z,4.18
2022-08-20T18:21:30.342Z,4.00
2022-08-20T18:23:17.451Z,2.95
2022-08-20T18:24:57.981Z,3.08
2022-08-20T18:26:45.200Z,2.33
2022-08-20T18:28:24.545Z,2.97
2022-08-20T18:29:59.530Z,2.47
2022-08-20T18:31:40.820Z,2.65
2022-08-20T18:33:14.216Z,2.00
2022-08-20T18:34:47.191Z,1.88
2022-08-20T18:36:19.403Z,1.77
2022-08-20T18:37:52.669Z,1.92
2022-08-20T18:39:34.534Z,1.65
2022-08-20T18:41:25.894Z,2.08
2022-08-20T18:42:59.225Z,1.50
2022-08-20T18:44:47.538Z,1.50
2022-08-20T18:46:24.137Z,1.48
2022-08-20T18:47:56.708Z,1.85
2022-08-20T18:49:31.587Z,1.60
2022-08-20T18:51:10.120Z,1.50
2022-08-20T18:52:49.406Z,1.98
2022-08-20T18:54:30.844Z,1.35
2022-08-20T18:56:08.691Z,1.58
2022-08-20T18:57:55.217Z,1.50
2022-08-20T18:59:31.390Z,1.58
2022-08-20T19:01:11.658Z,1.77
2022-08-20T19:03:07.999Z,1.92
2022-08-20T19:04:40.211Z,1.25
2022-08-20T19:06:15.566Z,1.42
2022-08-20T19:07:51.354Z,1.88
2022-08-20T19:09:43.040Z,1.50
2022-08-20T19:11:46.051Z,1.70
2022-08-20T19:13:46.328Z,1.95
2022-08-20T19:15:21.288Z,1.65
2022-08-20T19:17:25.308Z,1.52
2022-08-20T19:18:58.277Z,1.40
2022-08-20T19:20:33.737Z,1.30
2022-08-20T19:22:06.639Z,1.80
2022-08-20T19:25:29.142Z,1.10
2022-08-20T19:27:05.569Z,1.08
2022-08-20T19:28:45.244Z,1.30
2022-08-20T19:30:29.061Z,1.60
2022-08-20T19:32:04.961Z,1.45
2022-08-20T19:33:43.824Z,1.42
2022-08-20T19:35:18.138Z,1.42
2022-08-20T19:37:04.543Z,1.48
2022-08-20T19:38:54.650Z,1.45
2022-08-20T19:40:33.328Z,1.42
2022-08-20T19:42:20.064Z,1.60
2022-08-20T19:43:54.987Z,1.23
2022-08-20T19:45:37.366Z,1.25
2022-08-20T19:47:19.974Z,1.23
2022-08-20T19:49:04.620Z,1.15
2022-08-20T19:50:37.216Z,1.20
2022-08-20T19:52:24.555Z,1.25
2022-08-20T19:53:57.005Z,1.52
2022-08-20T19:55:33.298Z,1.33
2022-08-20T19:57:09.834Z,1.27
2022-08-20T19:58:43.190Z,1.70
2022-08-20T20:00:16.245Z,1.10
2022-08-20T20:02:02.968Z,0.93
2022-08-20T20:03:40.458Z,1.40
2022-08-20T20:05:13.101Z,1.63
2022-08-20T20:06:47.344Z,1.58
2022-08-20T20:08:20.957Z,1.88
2022-08-20T20:10:00.438Z,1.63
2022-08-20T20:11:46.067Z,1.17
2022-08-20T20:13:21.278Z,0.98
2022-08-20T20:14:55.178Z,0.80
2022-08-20T20:16:31.362Z,1.40
2022-08-20T20:18:03.785Z,1.05
2022-08-20T20:19:53.382Z,0.95
2022-08-20T20:21:36.568Z,1.52
2022-08-20T20:23:19.835Z,1.30
2022-08-20T20:25:17.048Z,1.20
2022-08-20T20:26:49.709Z,1.38
2022-08-20T20:28:26.230Z,0.98
2022-08-20T20:30:01.025Z,1.25
2022-08-20T20:31:54.812Z,1.20
2022-08-20T20:33:35.806Z,1.08
2022-08-20T20:35:08.134Z,1.15
2022-08-20T20:36:43.251Z,1.90
2022-08-20T20:38:26.624Z,1.10
2022-08-20T20:40:19.376Z,1.50
2022-08-20T20:41:54.777Z,1.50
2022-08-20T20:43:37.675Z,1.10
2022-08-20T20:45:19.279Z,1.30
2022-08-20T20:46:57.490Z,1.55
2022-08-20T20:48:39.527Z,1.08
2022-08-20T20:50:12.689Z,1.80
2022-08-20T20:51:54.997Z,1.25
2022-08-20T20:53:51.239Z,1.25
2022-08-20T20:55:30.469Z,1.40
2022-08-20T20:57:06.183Z,1.20
2022-08-20T20:58:38.425Z,1.58
2022-08-20T21:00:14.448Z,1.30
2022-08-20T21:01:49.203Z,1.00
2022-08-20T21:03:22.571Z,1.55
2022-08-20T21:04:58.301Z,1.10
2022-08-20T21:06:31.146Z,1.10
2022-08-20T21:08:08.111Z,1.35
2022-08-20T21:09:42.081Z,0.95
2022-08-20T21:11:14.316Z,1.40
2022-08-20T21:12:51.933Z,0.82
2022-08-20T21:14:25.323Z,1.35
2022-08-20T21:15:57.695Z,1.45
2022-08-20T21:17:30.104Z,1.40
2022-08-20T21:19:06.821Z,1.50
2022-08-20T21:20:39.828Z,1.00
2022-08-20T21:22:12.017Z,1.30
2022-08-20T21:23:44.355Z,1.23
2022-08-20T21:25:18.913Z,1.20
2022-08-20T21:26:52.501Z,1.20
2022-08-20T21:28:24.734Z,0.70
2022-08-20T21:30:00.904Z,1.73
2022-08-20T21:31:38.129Z,1.80
2022-08-20T21:34:49.281Z,1.45
2022-08-20T21:36:21.485Z,1.58
2022-08-20T21:37:53.763Z,1.52
2022-08-20T21:40:58.731Z,1.25
2022-08-20T21:42:32.193Z,1.85
2022-08-20T21:44:21.532Z,1.50
2022-08-20T21:45:54.414Z,1.17
2022-08-20T21:47:28.171Z,2.03
2022-08-20T21:50:36.059Z,1.55
2022-08-20T21:52:08.662Z,1.30
2022-08-20T21:53:40.830Z,1.75
2022-08-20T21:55:13.946Z,2.13
2022-08-20T21:56:51.936Z,2.15
2022-08-20T21:58:24.502Z,2.22
2022-08-20T21:59:57.904Z,2.10
2022-08-20T22:01:32.780Z,1.92
2022-08-20T22:03:05.194Z,1.70
2022-08-20T22:06:13.618Z,2.55
2022-08-20T22:07:45.833Z,2.30
2022-08-20T22:09:18.126Z,2.33
2022-08-20T22:10:53.323Z,2.38
2022-08-20T22:12:26.873Z,2.22
2022-08-20T22:13:59.698Z,2.55
2022-08-20T22:17:04.574Z,2.45
2022-08-20T22:18:36.961Z,2.22
2022-08-20T22:20:09.898Z,2.03
2022-08-20T22:21:42.298Z,2.65
2022-08-20T22:23:15.077Z,2.67
2022-08-20T22:24:47.365Z,2.72
2022-08-20T22:26:20.700Z,2.75
2022-08-20T22:27:52.870Z,2.33
2022-08-20T22:29:25.565Z,2.35
2022-08-20T22:30:57.864Z,2.38
2022-08-20T22:32:51.446Z,2.58
2022-08-20T22:34:22.615Z,2.80
2022-08-20T22:35:56.616Z,2.33
2022-08-20T22:37:31.430Z,2.90
2022-08-20T22:39:07.410Z,2.28
2022-08-20T22:40:39.645Z,2.83
2022-08-20T22:42:12.182Z,1.95
2022-08-20T22:43:56.950Z,2.72
2022-08-20T22:45:32.362Z,2.10
2022-08-20T22:48:43.702Z,1.85
2022-08-20T22:50:17.832Z,2.30
2022-08-20T22:51:50.057Z,2.17
2022-08-20T22:53:25.068Z,1.92
2022-08-20T22:54:57.560Z,2.40
2022-08-20T22:56:31.988Z,1.60